createdAt,value
2018-05-26T00:00:30.147Z,95278.90
2018-05-26T00:02:58.417Z,95280.25
2018-05-26T00:05:26.671Z,95281.70
2018-05-26T00:07:55.706Z,95284.64
2018-05-26T00:10:23.960Z,95284.02
2018-05-26T00:12:52.231Z,95285.49
2018-05-26T00:15:21.249Z,95287.58
2018-05-26T00:17:49.513Z,95290.69
2018-05-26T00:20:18.551Z,95287.98
2018-05-26T00:22:52.240Z,95278.28
2018-05-26T00:25:20.490Z,95286.41
2018-05-26T00:27:49.517Z,95282.14
2018-05-26T00:30:17.771Z,95266.25
2018-05-26T00:32:46.803Z,95282.09
2018-05-26T00:35:15.060Z,95285.53
2018-05-26T00:37:43.891Z,95282.66
2018-05-26T00:40:12.155Z,95277.17
2018-05-26T00:42:40.579Z,95278.98
2018-05-26T00:45:09.610Z,95281.94
2018-05-26T00:47:38.626Z,95286.05
2018-05-26T00:50:06.887Z,95289.88
2018-05-26T00:52:35.914Z,95282.13
2018-05-26T00:55:04.173Z,95278.84
2018-05-26T00:57:32.427Z,95285.30
2018-05-26T01:00:01.452Z,95283.09
2018-05-26T01:02:29.717Z,95275.36
2018-05-26T01:04:58.748Z,95273.16
2018-05-26T01:07:26.983Z,95277.72
2018-05-26T01:09:55.828Z,95273.55
2018-05-26T01:12:24.077Z,95274.94
2018-05-26T01:14:53.099Z,95274.29
2018-05-26T01:17:21.346Z,95270.59
2018-05-26T01:19:50.455Z,95273.14
2018-05-26T01:22:19.716Z,95276.64
2018-05-26T01:24:48.462Z,95264.61
2018-05-26T01:27:16.707Z,95276.25
2018-05-26T01:29:45.730Z,95275.84
2018-05-26T01:32:13.984Z,95278.71
2018-05-26T01:34:43.742Z,95285.66
2018-05-26T01:37:12.003Z,95283.47
2018-05-26T01:39:40.268Z,95284.19
2018-05-26T01:42:09.285Z,95283.61
2018-05-26T01:44:37.540Z,95286.12
2018-05-26T01:47:06.566Z,95285.64
2018-05-26T01:49:34.814Z,95278.19
2018-05-26T01:52:03.832Z,95287.55
2018-05-26T01:54:32.857Z,95288.10
2018-05-26T01:57:01.093Z,95282.37
2018-05-26T01:59:30.118Z,95286.78
2018-05-26T02:01:58.362Z,95285.45
2018-05-26T02:04:27.378Z,95289.00
2018-05-26T02:06:56.382Z,95289.42
2018-05-26T02:09:25.410Z,95280.95
2018-05-26T02:11:53.667Z,95290.36
2018-05-26T02:14:21.923Z,95289.50
2018-05-26T02:16:51.772Z,95288.52
2018-05-26T02:19:20.015Z,95296.80
2018-05-26T02:21:49.033Z,95294.01
2018-05-26T02:24:18.040Z,95292.12
2018-05-26T02:26:46.321Z,95288.93
2018-05-26T02:29:14.571Z,95287.39
2018-05-26T02:31:43.594Z,95283.73
2018-05-26T02:34:12.619Z,95290.02
2018-05-26T02:36:40.870Z,95290.37
2018-05-26T02:39:09.127Z,95288.14
2018-05-26T02:41:38.148Z,95290.06
2018-05-26T02:44:07.173Z,95287.84
2018-05-26T02:46:35.418Z,95284.31
2018-05-26T02:49:04.451Z,95285.97
2018-05-26T02:51:32.690Z,95297.75
2018-05-26T02:54:01.722Z,95292.77
2018-05-26T02:56:29.987Z,95293.73
2018-05-26T02:58:59.013Z,95293.33
2018-05-26T03:01:27.262Z,95295.22
2018-05-26T03:03:55.632Z,95298.72
2018-05-26T03:06:30.096Z,95295.47
2018-05-26T03:09:03.927Z,95296.19
2018-05-26T03:11:37.805Z,95293.44
2018-05-26T03:14:11.387Z,95300.05
2018-05-26T03:16:41.896Z,95307.95
2018-05-26T03:19:10.203Z,95301.95
2018-05-26T03:21:38.454Z,95299.98
2018-05-26T03:24:07.491Z,95305.61
2018-05-26T03:26:35.734Z,95309.22
2018-05-26T03:29:04.487Z,95310.60
2018-05-26T03:31:32.732Z,95313.43
2018-05-26T03:34:00.987Z,95310.84
2018-05-26T03:36:30.019Z,95315.39
2018-05-26T03:38:58.263Z,95316.91
2018-05-26T03:41:27.280Z,95322.02
2018-05-26T03:43:56.311Z,95326.33
2018-05-26T03:46:24.559Z,95330.17
2018-05-26T03:48:53.662Z,95330.62
2018-05-26T03:51:21.943Z,95327.62
2018-05-26T03:53:50.200Z,95333.48
2018-05-26T03:56:37.164Z,95329.72
2018-05-26T04:02:19.655Z,95330.59
2018-05-26T04:04:47.919Z,95333.56
2018-05-26T04:07:16.929Z,95332.03
2018-05-26T04:09:45.187Z,95342.23
2018-05-26T04:12:14.212Z,95335.38
2018-05-26T04:14:42.467Z,95331.13
2018-05-26T04:17:11.484Z,95335.59
2018-05-26T04:19:39.727Z,95337.50
2018-05-26T04:22:08.752Z,95339.78
2018-05-26T04:24:37.770Z,95335.22
2018-05-26T04:27:06.027Z,95343.29
2018-05-26T04:29:35.037Z,95341.84
2018-05-26T04:32:03.301Z,95344.84
2018-05-26T04:34:32.315Z,95352.05
2018-05-26T04:37:00.579Z,95351.73
2018-05-26T04:39:29.598Z,95352.88
2018-05-26T04:41:57.847Z,95352.48
2018-05-26T04:44:26.869Z,95359.55
2018-05-26T04:46:55.134Z,95358.06
2018-05-26T04:49:25.394Z,95355.56
2018-05-26T04:51:53.636Z,95345.36
2018-05-26T04:54:22.661Z,95340.29
2018-05-26T04:56:50.928Z,95336.30
2018-05-26T04:59:19.967Z,95334.31
2018-05-26T05:01:48.228Z,95334.69
2018-05-26T05:04:16.490Z,95334.25
2018-05-26T05:06:44.759Z,95331.84
2018-05-26T05:09:13.783Z,95333.34
2018-05-26T05:11:42.042Z,95328.36
2018-05-26T05:14:10.298Z,95330.98
2018-05-26T05:16:39.332Z,95325.66
2018-05-26T05:19:07.602Z,95328.30
2018-05-26T05:21:36.027Z,95329.88
2018-05-26T05:24:04.283Z,95326.04
2018-05-26T05:26:32.547Z,95332.11
2018-05-26T05:29:01.646Z,95328.03
2018-05-26T05:31:31.699Z,95329.42
2018-05-26T05:33:59.961Z,95335.90
2018-05-26T05:36:28.228Z,95337.25
2018-05-26T05:38:57.251Z,95326.75
2018-05-26T05:41:25.531Z,95336.41
2018-05-26T05:43:53.806Z,95327.53
2018-05-26T05:46:22.069Z,95331.06
2018-05-26T05:48:51.112Z,95334.69
2018-05-26T05:51:19.343Z,95336.25
2018-05-26T05:53:47.631Z,95335.97
2018-05-26T05:56:16.866Z,95338.78
2018-05-26T05:58:45.085Z,95333.02
2018-05-26T06:01:14.114Z,95339.81
2018-05-26T06:03:42.386Z,95330.70
2018-05-26T06:06:10.667Z,95328.06
2018-05-26T06:08:39.703Z,95339.45
2018-05-26T06:11:07.970Z,95340.24
2018-05-26T06:13:36.230Z,95340.09
2018-05-26T06:16:04.483Z,95341.19
2018-05-26T06:18:33.515Z,95339.56
2018-05-26T06:21:01.791Z,95340.29
2018-05-26T06:23:30.366Z,95346.09
2018-05-26T06:25:59.395Z,95349.02
2018-05-26T06:28:27.653Z,95348.62
2018-05-26T06:30:56.691Z,95344.02
2018-05-26T06:33:24.955Z,95347.87
2018-05-26T06:35:53.280Z,95352.01
2018-05-26T06:38:21.491Z,95345.09
2018-05-26T06:40:49.754Z,95341.75
2018-05-26T06:43:18.788Z,95340.48
2018-05-26T06:45:47.039Z,95340.58
2018-05-26T06:48:16.070Z,95336.67
2018-05-26T06:50:44.332Z,95336.17
2018-05-26T06:53:12.595Z,95341.41
2018-05-26T06:55:41.627Z,95336.37
2018-05-26T06:58:09.879Z,95335.94
2018-05-26T07:00:38.907Z,95338.31
2018-05-26T07:03:07.178Z,95330.03
2018-05-26T07:05:35.431Z,95331.55
2018-05-26T07:08:04.551Z,95327.53
2018-05-26T07:10:32.804Z,95333.31
2018-05-26T07:13:01.837Z,95321.74
2018-05-26T07:15:30.104Z,95326.08
2018-05-26T07:17:59.211Z,95331.61
2018-05-26T07:20:27.458Z,95323.38
2018-05-26T07:22:56.482Z,95325.14
2018-05-26T07:25:24.762Z,95326.45
2018-05-26T07:27:53.057Z,95331.97
2018-05-26T07:30:22.052Z,95321.19
2018-05-26T07:32:50.422Z,95334.13
2018-05-26T07:35:19.443Z,95332.59
2018-05-26T07:37:47.700Z,95339.74
2018-05-26T07:40:15.971Z,95335.31
2018-05-26T07:42:44.983Z,95335.06
2018-05-26T07:45:13.255Z,95334.75
2018-05-26T07:47:42.275Z,95315.72
2018-05-26T07:50:10.535Z,95317.79
2018-05-26T07:52:38.804Z,95312.91
2018-05-26T07:55:07.814Z,95303.58
2018-05-26T07:57:36.099Z,95298.31
2018-05-26T08:00:05.888Z,95307.03
2018-05-26T08:02:34.103Z,95303.14
2018-05-26T08:05:02.362Z,95316.56
2018-05-26T08:07:31.396Z,95322.41
2018-05-26T08:09:59.656Z,95317.03
2018-05-26T08:12:27.931Z,95314.81
2018-05-26T08:14:56.203Z,95315.50
2018-05-26T08:17:25.259Z,95305.47
2018-05-26T08:19:53.507Z,95308.87
2018-05-26T08:22:21.773Z,95316.98
2018-05-26T08:24:50.876Z,95309.72
2018-05-26T08:27:19.150Z,95309.34
2018-05-26T08:29:48.179Z,95305.51
2018-05-26T08:32:16.631Z,95303.53
2018-05-26T08:34:44.900Z,95304.23
2018-05-26T08:37:13.923Z,95305.45
2018-05-26T08:39:42.191Z,95302.34
2018-05-26T08:42:11.208Z,95304.29
2018-05-26T08:44:39.474Z,95302.39
2018-05-26T08:47:08.496Z,95307.60
2018-05-26T08:49:36.777Z,95306.16
2018-05-26T08:52:05.048Z,95306.94
2018-05-26T08:54:33.315Z,95314.22
2018-05-26T08:57:01.608Z,95314.91
2018-05-26T08:59:29.873Z,95314.19
2018-05-26T09:01:58.975Z,95319.55
2018-05-26T09:04:27.255Z,95325.66
2018-05-26T09:06:55.506Z,95317.95
2018-05-26T09:09:24.535Z,95324.39
2018-05-26T09:11:52.786Z,95326.00
2018-05-26T09:14:21.824Z,95327.45
2018-05-26T09:16:50.087Z,95320.02
2018-05-26T09:19:19.114Z,95328.42
2018-05-26T09:21:47.386Z,95325.79
2018-05-26T09:24:15.857Z,95324.48
2018-05-26T09:26:44.108Z,95327.62
2018-05-26T09:29:13.135Z,95330.25
2018-05-26T09:31:41.398Z,95328.92
2018-05-26T09:34:10.431Z,95328.70
2018-05-26T09:36:39.547Z,95331.92
2018-05-26T09:39:07.811Z,95334.03
2018-05-26T09:41:36.090Z,95335.94
2018-05-26T09:44:04.346Z,95332.30
2018-05-26T09:46:33.375Z,95325.14
2018-05-26T09:49:01.640Z,95333.55
2018-05-26T09:51:29.908Z,95336.27
2018-05-26T09:53:58.174Z,95335.38
2018-05-26T09:56:27.216Z,95336.24
2018-05-26T09:58:55.457Z,95328.20
2018-05-26T10:01:24.477Z,95326.35
2018-05-26T10:06:51.871Z,95333.19
2018-05-26T10:09:20.225Z,95330.50
2018-05-26T10:11:48.477Z,95330.69
2018-05-26T10:14:17.511Z,95328.67
2018-05-26T10:16:45.772Z,95333.75
2018-05-26T10:19:14.811Z,95336.70
2018-05-26T10:21:43.071Z,95340.83
2018-05-26T10:24:11.386Z,95335.45
2018-05-26T10:26:39.634Z,95337.94
2018-05-26T10:29:07.898Z,95334.39
2018-05-26T10:31:36.163Z,95335.83
2018-05-26T10:34:05.191Z,95339.48
2018-05-26T10:36:33.435Z,95341.38
2018-05-26T10:39:08.396Z,95338.50
2018-05-26T10:41:36.652Z,95343.61
2018-05-26T10:44:05.697Z,95346.98
2018-05-26T10:46:33.960Z,95335.71
2018-05-26T10:49:02.219Z,95339.33
2018-05-26T10:51:31.243Z,95336.08
2018-05-26T10:53:59.504Z,95345.44
2018-05-26T10:56:27.756Z,95347.50
2018-05-26T10:58:56.788Z,95345.36
2018-05-26T11:01:25.059Z,95339.70
2018-05-26T11:03:54.369Z,95338.11
2018-05-26T11:06:22.623Z,95343.36
2018-05-26T11:08:51.657Z,95338.18
2018-05-26T11:11:19.919Z,95344.13
2018-05-26T11:13:48.943Z,95334.44
2018-05-26T11:16:17.223Z,95341.03
2018-05-26T11:18:45.469Z,95339.70
2018-05-26T11:21:14.503Z,95343.33
2018-05-26T11:23:42.765Z,95337.13
2018-05-26T11:26:11.073Z,95343.62
2018-05-26T11:28:39.294Z,95338.47
2018-05-26T11:31:08.367Z,95333.62
2018-05-26T11:33:36.596Z,95331.13
2018-05-26T11:36:04.863Z,95330.43
2018-05-26T11:38:33.886Z,95334.91
2018-05-26T11:41:02.146Z,95328.81
2018-05-26T11:43:31.177Z,95331.73
2018-05-26T11:45:59.430Z,95331.03
2018-05-26T11:48:27.690Z,95331.77
2018-05-26T11:50:56.733Z,95329.54
2018-05-26T11:53:25.007Z,95325.55
2018-05-26T11:55:54.002Z,95318.14
2018-05-26T11:58:22.274Z,95323.84
2018-05-26T12:00:50.544Z,95329.21
2018-05-26T12:03:19.551Z,95326.53
2018-05-26T12:05:47.824Z,95329.47
2018-05-26T12:08:17.034Z,95324.83
2018-05-26T12:10:45.328Z,95331.24
2018-05-26T12:13:14.325Z,95324.20
2018-05-26T12:15:42.587Z,95324.02
2018-05-26T12:18:12.326Z,95321.31
2018-05-26T12:20:40.590Z,95322.89
2018-05-26T12:23:08.843Z,95325.69
2018-05-26T12:25:37.880Z,95314.59
2018-05-26T12:28:06.150Z,95319.87
2018-05-26T12:30:35.242Z,95320.67
2018-05-26T12:33:03.514Z,95322.64
2018-05-26T12:35:32.558Z,95318.06
2018-05-26T12:38:00.818Z,95325.28
2018-05-26T12:40:29.078Z,95322.13
2018-05-26T12:42:57.338Z,95320.84
2018-05-26T12:45:26.374Z,95318.17
2018-05-26T12:47:54.618Z,95316.33
2018-05-26T12:50:23.654Z,95320.30
2018-05-26T12:52:51.912Z,95310.73
2018-05-26T12:55:20.954Z,95310.09
2018-05-26T12:57:49.194Z,95312.91
2018-05-26T13:00:17.490Z,95313.88
2018-05-26T13:02:45.750Z,95313.47
2018-05-26T13:05:14.877Z,95303.94
2018-05-26T13:07:43.135Z,95305.52
2018-05-26T13:10:12.163Z,95301.34
2018-05-26T13:12:42.798Z,95309.19
2018-05-26T13:15:11.050Z,95304.80
2018-05-26T13:17:40.089Z,95289.38
2018-05-26T13:20:08.344Z,95300.19
2018-05-26T13:22:36.616Z,95284.04
2018-05-26T13:25:04.875Z,95289.55
2018-05-26T13:27:33.911Z,95298.39
2018-05-26T13:30:02.180Z,95293.81
2018-05-26T13:32:30.425Z,95297.28
2018-05-26T13:34:59.465Z,95294.43
2018-05-26T13:37:27.732Z,95287.97
2018-05-26T13:39:56.736Z,95297.07
2018-05-26T13:42:25.002Z,95292.88
2018-05-26T13:44:54.033Z,95295.45
2018-05-26T13:47:22.296Z,95293.63
2018-05-26T13:49:50.553Z,95294.00
2018-05-26T13:52:19.701Z,95294.94
2018-05-26T13:54:47.976Z,95297.03
2018-05-26T13:57:16.958Z,95296.13
2018-05-26T13:59:45.219Z,95292.89
2018-05-26T14:02:14.248Z,95293.66
2018-05-26T14:04:42.503Z,95288.03
2018-05-26T14:07:10.799Z,95280.86
2018-05-26T14:09:39.043Z,95279.64
2018-05-26T14:12:08.070Z,95287.77
2018-05-26T14:14:36.962Z,95288.77
2018-05-26T14:17:06.178Z,95282.13
2018-05-26T14:19:34.440Z,95283.95
2018-05-26T14:22:02.713Z,95284.69
2018-05-26T14:24:32.549Z,95289.95
2018-05-26T14:27:00.813Z,95284.33
2018-05-26T14:29:29.112Z,95285.33
2018-05-26T14:31:57.389Z,95279.17
2018-05-26T14:34:25.641Z,95277.58
2018-05-26T14:36:54.760Z,95285.30
2018-05-26T14:39:23.038Z,95280.77
2018-05-26T14:41:51.312Z,95278.00
2018-05-26T14:44:20.330Z,95282.23
2018-05-26T14:46:48.596Z,95278.24
2018-05-26T14:49:18.209Z,95275.02
2018-05-26T14:51:46.475Z,95271.34
2018-05-26T14:54:15.501Z,95277.18
2018-05-26T14:56:43.771Z,95280.48
2018-05-26T14:59:12.043Z,95273.22
2018-05-26T15:01:41.148Z,95283.87
2018-05-26T15:04:09.416Z,95287.79
2018-05-26T15:06:38.447Z,95279.13
2018-05-26T15:09:06.705Z,95284.20
2018-05-26T15:11:34.958Z,95286.92
2018-05-26T15:14:04.000Z,95287.23
2018-05-26T15:16:32.258Z,95282.54
2018-05-26T15:19:00.528Z,95283.90
2018-05-26T15:21:30.254Z,95278.38
2018-05-26T15:23:59.291Z,95278.57
2018-05-26T15:26:27.550Z,95280.05
2018-05-26T15:28:55.814Z,95281.22
2018-05-26T15:31:24.863Z,95280.81
2018-05-26T15:33:53.119Z,95284.81
2018-05-26T15:36:21.366Z,95279.33
2018-05-26T15:38:50.404Z,95281.98
2018-05-26T15:41:18.656Z,95278.59
2018-05-26T15:43:46.924Z,95276.85
2018-05-26T15:46:15.947Z,95281.63
2018-05-26T15:48:44.213Z,95287.00
2018-05-26T15:51:12.481Z,95287.02
2018-05-26T15:53:41.518Z,95278.36
2018-05-26T15:56:09.775Z,95284.70
2018-05-26T15:58:38.063Z,95275.88
2018-05-26T16:01:06.306Z,95282.00
2018-05-26T16:03:35.347Z,95278.89
2018-05-26T16:06:03.611Z,95277.38
2018-05-26T16:08:31.879Z,95269.15
2018-05-26T16:11:00.902Z,95279.23
2018-05-26T16:13:29.174Z,95276.15
2018-05-26T16:15:57.447Z,95282.53
2018-05-26T16:18:26.479Z,95287.78
2018-05-26T16:20:54.732Z,95285.55
2018-05-26T16:23:23.134Z,95280.81
2018-05-26T16:25:51.409Z,95283.20
2018-05-26T16:28:19.660Z,95292.55
2018-05-26T16:30:48.694Z,95292.16
2018-05-26T16:33:16.961Z,95293.96
2018-05-26T16:35:45.224Z,95297.87
2018-05-26T16:38:14.250Z,95300.30
2018-05-26T16:40:42.502Z,95294.22
2018-05-26T16:43:11.607Z,95293.77
2018-05-26T16:45:39.854Z,95295.08
2018-05-26T16:48:08.124Z,95289.94
2018-05-26T16:50:36.375Z,95296.99
2018-05-26T16:53:04.645Z,95295.27
2018-05-26T16:55:34.906Z,95289.02
2018-05-26T16:58:03.171Z,95296.33
2018-05-26T17:00:31.415Z,95289.32
2018-05-26T17:02:59.690Z,95299.55
2018-05-26T17:05:28.713Z,95299.92
2018-05-26T17:07:56.975Z,95303.94
2018-05-26T17:10:25.278Z,95298.73
2018-05-26T17:12:53.541Z,95303.05
2018-05-26T17:15:21.817Z,95309.38
2018-05-26T17:17:50.070Z,95307.93
2018-05-26T17:20:19.327Z,95307.34
2018-05-26T17:22:47.625Z,95305.83
2018-05-26T17:25:15.883Z,95305.31
2018-05-26T17:27:44.268Z,95308.77
2018-05-26T17:30:12.523Z,95304.65
2018-05-26T17:32:40.788Z,95301.89
2018-05-26T17:35:09.820Z,95306.25
2018-05-26T17:37:38.071Z,95317.41
2018-05-26T17:40:07.123Z,95312.53
2018-05-26T17:42:35.393Z,95310.73
2018-05-26T17:45:03.651Z,95310.26
2018-05-26T17:47:31.903Z,95313.34
2018-05-26T17:50:00.934Z,95311.28
2018-05-26T17:52:29.187Z,95311.94
2018-05-26T17:54:58.301Z,95317.20
2018-05-26T17:57:26.555Z,95314.39
2018-05-26T17:59:55.604Z,95318.73
2018-05-26T18:02:23.870Z,95320.64
2018-05-26T18:04:52.131Z,95319.53
2018-05-26T18:07:21.165Z,95311.95
2018-05-26T18:09:50.220Z,95321.56
2018-05-26T18:12:19.250Z,95319.00
2018-05-26T18:14:47.527Z,95318.48
2018-05-26T18:17:15.818Z,95322.08
2018-05-26T18:19:44.066Z,95325.62
2018-05-26T18:22:13.085Z,95330.48
2018-05-26T18:24:41.353Z,95334.45
2018-05-26T18:27:10.376Z,95330.09
2018-05-26T18:29:38.644Z,95333.84
2018-05-26T18:32:06.905Z,95339.30
2018-05-26T18:34:35.935Z,95342.82
2018-05-26T18:37:04.186Z,95347.09
2018-05-26T18:39:33.294Z,95349.02
2018-05-26T18:42:01.758Z,95345.39
2018-05-26T18:44:30.788Z,95347.73
2018-05-26T18:46:59.039Z,95348.05
2018-05-26T18:49:28.062Z,95350.13
2018-05-26T18:51:56.315Z,95355.57
2018-05-26T18:54:25.358Z,95363.42
2018-05-26T18:56:53.615Z,95362.61
2018-05-26T18:59:21.867Z,95360.44
2018-05-26T19:01:51.646Z,95360.80
2018-05-26T19:04:19.909Z,95359.64
2018-05-26T19:06:48.184Z,95362.25
2018-05-26T19:09:16.452Z,95359.77
2018-05-26T19:11:44.720Z,95374.01
2018-05-26T19:14:13.643Z,95368.48
2018-05-26T19:16:41.928Z,95378.70
2018-05-26T19:19:10.199Z,95381.80
2018-05-26T19:21:38.462Z,95385.16
2018-05-26T19:24:07.491Z,95383.99
2018-05-26T19:26:35.768Z,95392.39
2018-05-26T19:29:04.023Z,95392.02
2018-05-26T19:31:32.288Z,95399.64
2018-05-26T19:34:01.316Z,95391.89
2018-05-26T19:36:29.591Z,95393.44
2018-05-26T19:38:58.309Z,95395.47
2018-05-26T19:41:26.566Z,95394.36
2018-05-26T19:43:54.836Z,95389.74
2018-05-26T19:46:23.102Z,95394.38
2018-05-26T19:48:52.121Z,95388.77
2018-05-26T19:51:20.381Z,95392.02
2018-05-26T19:53:49.496Z,95399.84
2018-05-26T19:56:17.819Z,95400.54
2018-05-26T19:58:46.074Z,95405.88
2018-05-26T20:01:14.335Z,95413.00
2018-05-26T20:03:42.619Z,95415.16
2018-05-26T20:06:10.894Z,95422.16
2018-05-26T20:08:39.150Z,95419.52
2018-05-26T20:11:08.480Z,95423.89
2018-05-26T20:13:36.735Z,95420.00
2018-05-26T20:16:05.759Z,95424.95
2018-05-26T20:18:34.027Z,95422.98
2018-05-26T20:21:03.059Z,95426.07
2018-05-26T20:23:31.314Z,95430.39
2018-05-26T20:25:59.599Z,95426.39
2018-05-26T20:28:27.851Z,95429.47
2018-05-26T20:30:56.882Z,95422.98
2018-05-26T20:33:25.136Z,95427.02
2018-05-26T20:35:54.175Z,95429.64
2018-05-26T20:38:22.427Z,95435.27
2018-05-26T20:40:51.459Z,95435.47
2018-05-26T20:43:19.728Z,95432.46
2018-05-26T20:45:47.991Z,95432.50
2018-05-26T20:48:17.007Z,95430.36
2018-05-26T20:50:45.286Z,95426.80
2018-05-26T20:53:13.545Z,95423.77
2018-05-26T20:55:42.646Z,95417.85
2018-05-26T20:58:11.675Z,95418.84
2018-05-26T21:00:40.063Z,95420.84
2018-05-26T21:03:08.328Z,95423.13
2018-05-26T21:05:36.703Z,95425.23
2018-05-26T21:08:04.968Z,95435.80
2018-05-26T21:10:33.992Z,95439.55
2018-05-26T21:13:02.254Z,95432.75
2018-05-26T21:15:30.535Z,95439.65
2018-05-26T21:17:58.793Z,95441.61
2018-05-26T21:20:27.830Z,95444.28
2018-05-26T21:22:56.091Z,95435.49
2018-05-26T21:25:25.117Z,95448.41
2018-05-26T21:27:53.441Z,95443.34
2018-05-26T21:30:21.642Z,95440.16
2018-05-26T21:32:50.672Z,95442.84
2018-05-26T21:35:18.919Z,95444.53
2018-05-26T21:37:48.028Z,95450.61
2018-05-26T21:40:17.135Z,95453.50
2018-05-26T21:42:45.401Z,95460.17
2018-05-26T21:45:14.422Z,95460.41
2018-05-26T21:47:42.723Z,95455.81
2018-05-26T21:50:11.703Z,95459.42
2018-05-26T21:52:39.966Z,95461.27
2018-05-26T21:55:08.224Z,95463.81
2018-05-26T21:57:37.260Z,95463.83
2018-05-26T22:00:05.520Z,95470.03
2018-05-26T22:02:34.553Z,95467.27
2018-05-26T22:05:02.799Z,95463.09
2018-05-26T22:07:31.830Z,95466.31
2018-05-26T22:10:00.099Z,95467.45
2018-05-26T22:12:28.363Z,95467.33
2018-05-26T22:14:58.091Z,95470.20
2018-05-26T22:17:26.361Z,95458.52
2018-05-26T22:19:54.610Z,95464.84
2018-05-26T22:22:23.643Z,95464.49
2018-05-26T22:24:51.909Z,95453.92
2018-05-26T22:27:20.941Z,95458.31
2018-05-26T22:29:49.192Z,95451.80
2018-05-26T22:32:18.410Z,95451.50
2018-05-26T22:34:46.686Z,95442.48
2018-05-26T22:37:14.944Z,95440.98
2018-05-26T22:39:43.975Z,95448.53
2018-05-26T22:42:12.244Z,95445.29
2018-05-26T22:44:40.511Z,95443.15
2018-05-26T22:47:09.416Z,95445.73
2018-05-26T22:49:38.443Z,95448.28
2018-05-26T22:52:06.696Z,95445.58
2018-05-26T22:54:34.964Z,95443.48
2018-05-26T22:57:04.072Z,95437.59
2018-05-26T22:59:32.354Z,95443.30
2018-05-26T23:02:00.604Z,95434.40
2018-05-26T23:04:29.640Z,95437.74
2018-05-26T23:06:57.906Z,95428.73
2018-05-26T23:09:26.934Z,95428.27
2018-05-26T23:11:55.293Z,95430.95
2018-05-26T23:14:23.563Z,95426.41
2018-05-26T23:16:52.586Z,95425.17
2018-05-26T23:19:21.408Z,95419.76
2018-05-26T23:21:49.665Z,95418.17
2018-05-26T23:24:17.938Z,95416.45
2018-05-26T23:26:46.190Z,95413.37
2018-05-26T23:29:15.214Z,95418.88
2018-05-26T23:31:43.477Z,95411.69
2018-05-26T23:34:11.747Z,95413.39
2018-05-26T23:36:40.776Z,95416.16
2018-05-26T23:39:09.037Z,95410.83
2018-05-26T23:41:38.059Z,95409.70
2018-05-26T23:44:06.323Z,95411.95
2018-05-26T23:46:34.590Z,95409.50
2018-05-26T23:49:03.615Z,95402.89
2018-05-26T23:51:31.883Z,95412.61
2018-05-26T23:54:00.145Z,95406.45
2018-05-26T23:56:29.430Z,95403.39
2018-05-26T23:58:58.450Z,95399.94
